Safi, Morocco
Current Conditions -  °F | °C
As of 7:00 PM on Sunday 23 Nov 2014 (Local Time) from GMMI Reporting Station
Scattered Clouds Scattered Clouds  
Wind Chill: 64°   Ceiling: Unl
Heat Index: 64°   Visibility: 5mi
Dew Point: 59°   Wind: 5mph
Humidity: 83%   Direction: 270°W
Pressure: 29.91"   Gusts: NA
Location:  32.32°N, 9.24°W
Report Text: GMMI 231800Z 27004KT 8000 FEW013 SCT020 18/15 Q1013
Loading
Personal Weather Stations






























Interactive Weather Map New forecast layout! Learn more

10-Day Weather Forecast

Advertisements
Track Severe Weather on mobile